Argyle, Illinois
Current Conditions -  °F | °C
As of 7:54 AM on Friday 19 Dec 2014 (Local Time) from KRFD Reporting Station
Overcast Overcast  
Wind Chill: 27°   Ceiling: 1200
Heat Index: 27°   Visibility: 10mi
Dew Point: 21°   Wind: 3mph
Humidity: 78%   Direction: 40°NE
Pressure: 30.32"   Gusts: NA
Location:  42.3911°N, 88.9094°W
Report Text: KRFD 191354Z 04003KT 10SM OVC012 M03/M06 A3032 RMK AO2 SLP276 T10281061
Loading
Personal Weather Stations






























Interactive Weather Map New forecast layout! Learn more

10-Day Weather Forecast

Advertisements
Track Severe Weather on mobile